createdAt,value
2023-07-07T00:01:02.181Z,94698.72
2023-07-07T00:03:28.847Z,94697.34
2023-07-07T00:05:55.323Z,94697.34
2023-07-07T00:08:21.817Z,94677.63
2023-07-07T00:10:48.418Z,94697.91
2023-07-07T00:13:15.814Z,94692.75
2023-07-07T00:15:45.301Z,94710.41
2023-07-07T00:18:16.207Z,94704.97
2023-07-07T00:20:42.881Z,94707.47
2023-07-07T00:23:09.458Z,94711.22
2023-07-07T00:25:35.917Z,94706.34
2023-07-07T00:28:02.372Z,94723.19
2023-07-07T00:30:28.835Z,94712.09
2023-07-07T00:32:55.307Z,94725.91
2023-07-07T00:35:21.761Z,94711.28
2023-07-07T00:37:48.265Z,94704.59
2023-07-07T00:40:14.769Z,94706.50
2023-07-07T00:42:41.238Z,94718.44
2023-07-07T00:45:20.196Z,94720.09
2023-07-07T00:47:49.013Z,94714.97
2023-07-07T00:50:15.950Z,94706.31
2023-07-07T00:52:43.497Z,94680.94
2023-07-07T00:55:11.172Z,94699.66
2023-07-07T00:57:37.608Z,94706.13
2023-07-07T01:00:04.753Z,94704.25
2023-07-07T01:02:31.244Z,94701.53
2023-07-07T01:04:59.960Z,94705.94
2023-07-07T01:07:32.489Z,94708.66
2023-07-07T01:09:58.964Z,94719.22
2023-07-07T01:12:25.476Z,94715.19
2023-07-07T01:14:52.698Z,94710.63
2023-07-07T01:17:30.221Z,94714.94
2023-07-07T01:20:03.377Z,94715.81
2023-07-07T01:22:51.411Z,94714.97
2023-07-07T01:25:50.184Z,94718.56
2023-07-07T01:28:32.953Z,94704.97
2023-07-07T01:31:06.240Z,94706.34
2023-07-07T01:33:32.886Z,94715.09
2023-07-07T01:35:59.360Z,94703.97
2023-07-07T01:38:45.432Z,94712.38
2023-07-07T01:41:16.810Z,94715.09
2023-07-07T01:43:48.033Z,94698.38
2023-07-07T01:46:31.569Z,94711.03
2023-07-07T01:49:11.592Z,94714.56
2023-07-07T01:52:00.808Z,94710.25
2023-07-07T01:54:28.524Z,94724.34
2023-07-07T01:56:55.012Z,94725.16
2023-07-07T01:59:21.478Z,94718.97
2023-07-07T02:01:48.040Z,94720.59
2023-07-07T02:04:14.658Z,94728.72
2023-07-07T02:06:41.155Z,94728.97
2023-07-07T02:09:07.794Z,94666.50
2023-07-07T02:11:34.318Z,94704.94
2023-07-07T02:14:00.903Z,94727.91
2023-07-07T02:16:27.639Z,94731.72
2023-07-07T02:18:54.105Z,94734.97
2023-07-07T02:21:20.617Z,94724.44
2023-07-07T02:23:47.096Z,94721.50
2023-07-07T02:26:14.863Z,94744.22
2023-07-07T02:28:41.316Z,94745.56
2023-07-07T02:31:11.293Z,94734.50
2023-07-07T02:33:37.765Z,94735.59
2023-07-07T02:36:06.562Z,94726.38
2023-07-07T02:38:33.510Z,94734.50
2023-07-07T02:41:00.498Z,94720.41
2023-07-07T02:43:27.342Z,94745.38
2023-07-07T02:45:53.851Z,94745.66
2023-07-07T02:48:20.631Z,94736.19
2023-07-07T02:51:01.026Z,94734.59
2023-07-07T02:53:32.362Z,94739.19
2023-07-07T02:55:58.985Z,94721.03
2023-07-07T02:58:25.518Z,94730.81
2023-07-07T03:00:52.123Z,94728.91
2023-07-07T03:03:19.097Z,94707.75
2023-07-07T03:05:45.831Z,94720.81
2023-07-07T03:08:12.304Z,94730.56
2023-07-07T03:10:39.704Z,94742.25
2023-07-07T03:13:06.260Z,94746.88
2023-07-07T03:15:42.684Z,94740.69
2023-07-07T03:18:10.085Z,94737.16
2023-07-07T03:20:36.729Z,94737.97
2023-07-07T03:23:03.942Z,94741.72
2023-07-07T03:25:30.675Z,94730.91
2023-07-07T03:27:57.333Z,94740.94
2023-07-07T03:30:23.818Z,94724.47
2023-07-07T03:32:50.359Z,94730.13
2023-07-07T03:35:16.922Z,94737.75
2023-07-07T03:37:43.380Z,94745.31
2023-07-07T03:40:10.735Z,94739.41
2023-07-07T03:42:38.251Z,94740.47
2023-07-07T03:45:05.225Z,94747.78
2023-07-07T03:47:31.781Z,94745.38
2023-07-07T03:49:58.249Z,94723.16
2023-07-07T03:52:24.719Z,94743.47
2023-07-07T03:54:51.410Z,94758.38
2023-07-07T03:57:17.912Z,94752.69
2023-07-07T03:59:44.372Z,94745.91
2023-07-07T04:02:10.853Z,94752.97
2023-07-07T04:04:37.462Z,94761.38
2023-07-07T04:07:04.087Z,94748.66
2023-07-07T04:09:30.549Z,94742.97
2023-07-07T04:11:57.002Z,94745.94
2023-07-07T04:14:27.337Z,94762.75
2023-07-07T04:16:53.811Z,94762.75
2023-07-07T04:19:21.714Z,94759.22
2023-07-07T04:21:48.173Z,94763.28
2023-07-07T04:24:14.622Z,94758.13
2023-07-07T04:26:41.127Z,94766.56
2023-07-07T04:29:07.577Z,94752.97
2023-07-07T04:31:35.126Z,94724.53
2023-07-07T04:34:01.600Z,94765.13
2023-07-07T04:36:28.030Z,94745.66
2023-07-07T04:38:54.543Z,94757.81
2023-07-07T04:41:22.551Z,94749.41
2023-07-07T04:43:53.760Z,94767.00
2023-07-07T04:46:30.011Z,94749.94
2023-07-07T04:48:56.633Z,94755.09
2023-07-07T04:51:23.117Z,94771.84
2023-07-07T04:53:49.651Z,94756.69
2023-07-07T04:56:18.142Z,94741.81
2023-07-07T04:58:44.872Z,94762.06
2023-07-07T05:01:19.980Z,94779.16
2023-07-07T05:03:48.964Z,94781.56
2023-07-07T05:06:15.752Z,94787.22
2023-07-07T05:08:43.009Z,94784.78
2023-07-07T05:11:13.581Z,94770.69
2023-07-07T05:13:40.155Z,94775.25
2023-07-07T05:16:08.702Z,94792.31
2023-07-07T05:18:35.209Z,94785.22
2023-07-07T05:21:06.178Z,94791.44
2023-07-07T05:23:33.460Z,94794.94
2023-07-07T05:25:59.931Z,94786.50
2023-07-07T05:28:27.119Z,94788.06
2023-07-07T05:30:53.591Z,94797.53
2023-07-07T05:33:20.708Z,94792.09
2023-07-07T05:35:51.883Z,94791.97
2023-07-07T05:38:18.658Z,94796.00
2023-07-07T05:40:46.463Z,94793.53
2023-07-07T05:43:13.873Z,94788.03
2023-07-07T05:45:40.349Z,94756.56
2023-07-07T05:48:07.001Z,94782.16
2023-07-07T05:50:33.793Z,94781.50
2023-07-07T05:53:00.416Z,94791.75
2023-07-07T05:55:30.829Z,94797.59
2023-07-07T05:57:57.545Z,94779.94
2023-07-07T06:00:28.242Z,94799.91
2023-07-07T06:02:55.690Z,94792.25
2023-07-07T06:05:22.237Z,94808.63
2023-07-07T06:07:48.750Z,94803.69
2023-07-07T06:10:15.201Z,94814.81
2023-07-07T06:12:41.687Z,94811.72
2023-07-07T06:15:08.658Z,94810.25
2023-07-07T06:17:35.246Z,94799.88
2023-07-07T06:20:01.978Z,94804.66
2023-07-07T06:22:28.474Z,94803.19
2023-07-07T06:24:54.924Z,94803.72
2023-07-07T06:27:21.399Z,94799.06
2023-07-07T06:29:48.099Z,94796.06
2023-07-07T06:32:14.573Z,94798.28
2023-07-07T06:34:41.002Z,94806.25
2023-07-07T06:37:07.451Z,94809.41
2023-07-07T06:39:33.962Z,94800.91
2023-07-07T06:42:01.191Z,94818.31
2023-07-07T06:44:27.677Z,94817.34
2023-07-07T06:46:54.432Z,94813.94
2023-07-07T06:49:20.899Z,94798.38
2023-07-07T06:51:47.356Z,94800.94
2023-07-07T06:54:13.929Z,94803.88
2023-07-07T06:56:40.381Z,94809.84
2023-07-07T06:59:06.878Z,94812.56
2023-07-07T07:01:33.372Z,94818.13
2023-07-07T07:04:01.631Z,94818.53
2023-07-07T07:06:28.681Z,94821.84
2023-07-07T07:08:55.157Z,94803.69
2023-07-07T07:11:21.694Z,94813.53
2023-07-07T07:13:48.438Z,94816.44
2023-07-07T07:16:15.022Z,94824.50
2023-07-07T07:18:41.478Z,94819.56
2023-07-07T07:21:07.985Z,94816.88
2023-07-07T07:23:36.272Z,94826.09
2023-07-07T07:26:03.032Z,94830.34
2023-07-07T07:28:29.728Z,94803.56
2023-07-07T07:30:56.484Z,94820.09
2023-07-07T07:33:23.827Z,94826.50
2023-07-07T07:35:50.321Z,94820.50
2023-07-07T07:38:17.221Z,94815.88
2023-07-07T07:40:43.775Z,94811.72
2023-07-07T07:43:10.244Z,94818.28
2023-07-07T07:45:37.597Z,94814.66
2023-07-07T07:48:04.452Z,94805.91
2023-07-07T07:50:32.437Z,94809.66
2023-07-07T07:52:58.929Z,94805.25
2023-07-07T07:55:25.589Z,94808.66
2023-07-07T07:57:52.036Z,94810.31
2023-07-07T08:00:18.866Z,94816.63
2023-07-07T08:02:45.551Z,94806.53
2023-07-07T08:05:12.252Z,94803.19
2023-07-07T08:07:39.207Z,94806.28
2023-07-07T08:10:06.361Z,94804.03
2023-07-07T08:12:33.462Z,94803.16
2023-07-07T08:15:00.122Z,94802.09
2023-07-07T08:17:28.074Z,94782.97
2023-07-07T08:19:55.648Z,94808.00
2023-07-07T08:22:23.217Z,94805.78
2023-07-07T08:24:52.124Z,94805.63
2023-07-07T08:29:48.118Z,94803.47
2023-07-07T08:32:15.963Z,94797.69
2023-07-07T08:34:53.267Z,94782.75
2023-07-07T08:37:22.087Z,94793.66
2023-07-07T08:39:48.612Z,94781.50
2023-07-07T08:42:26.892Z,94795.75
2023-07-07T08:44:54.237Z,94787.09
2023-07-07T08:47:29.647Z,94787.09
2023-07-07T08:50:06.532Z,94789.69
2023-07-07T08:52:41.600Z,94787.38
2023-07-07T08:55:33.055Z,94787.22
2023-07-07T08:58:08.112Z,94780.78
2023-07-07T09:01:10.064Z,94781.28
2023-07-07T09:04:04.939Z,94788.41
2023-07-07T09:07:02.408Z,94790.66
2023-07-07T09:10:08.181Z,94790.00
2023-07-07T09:12:49.556Z,94780.84
2023-07-07T09:15:21.324Z,94783.34
2023-07-07T09:17:50.693Z,94780.75
2023-07-07T09:20:17.203Z,94749.16
2023-07-07T09:22:46.932Z,94776.19
2023-07-07T09:25:34.416Z,94761.56
2023-07-07T09:28:13.999Z,94772.38
2023-07-07T09:30:43.403Z,94771.63
2023-07-07T09:33:17.269Z,94750.44
2023-07-07T09:35:55.415Z,94758.16
2023-07-07T09:38:33.881Z,94760.16
2023-07-07T09:41:26.494Z,94758.28
2023-07-07T09:44:12.713Z,94754.75
2023-07-07T09:47:06.702Z,94723.09
2023-07-07T09:50:05.003Z,94733.75
2023-07-07T09:52:54.921Z,94745.47
2023-07-07T09:56:45.543Z,94744.59
2023-07-07T10:03:33.997Z,94738.19
2023-07-07T10:07:21.942Z,94736.09
2023-07-07T10:13:45.289Z,94738.06
2023-07-07T10:17:13.400Z,94743.09
2023-07-07T10:28:06.054Z,94718.94
2023-07-07T10:31:06.667Z,94716.56
2023-07-07T10:33:45.778Z,94731.38
2023-07-07T10:47:39.136Z,94714.03
2023-07-07T10:51:01.833Z,94716.94
2023-07-07T10:53:48.113Z,94711.72
2023-07-07T11:00:31.470Z,94700.56
2023-07-07T11:04:31.286Z,94698.19
2023-07-07T11:11:59.113Z,94687.34
2023-07-07T11:14:48.390Z,94691.72
2023-07-07T11:18:04.715Z,94685.31
2023-07-07T11:20:39.946Z,94686.91
2023-07-07T11:23:27.320Z,94686.09
2023-07-07T11:26:13.377Z,94680.50
2023-07-07T11:29:12.171Z,94679.94
2023-07-07T11:32:15.547Z,94653.91
2023-07-07T11:35:19.799Z,94673.09
2023-07-07T11:38:05.735Z,94671.91
2023-07-07T11:40:50.994Z,94663.47
2023-07-07T11:43:38.702Z,94655.03
2023-07-07T11:46:27.888Z,94666.53
2023-07-07T11:49:16.825Z,94668.78
2023-07-07T11:52:10.088Z,94666.59
2023-07-07T11:55:15.059Z,94664.50
2023-07-07T11:58:27.961Z,94659.63
2023-07-07T12:00:59.691Z,94660.94
2023-07-07T12:03:55.929Z,94650.56
2023-07-07T12:06:44.301Z,94652.97
2023-07-07T12:09:24.134Z,94656.16
2023-07-07T12:11:56.671Z,94648.47
2023-07-07T12:14:48.198Z,94647.63
2023-07-07T12:17:19.965Z,94633.56
2023-07-07T12:19:48.876Z,94641.97
2023-07-07T12:22:22.738Z,94643.19
2023-07-07T12:25:08.311Z,94639.50
2023-07-07T12:27:43.198Z,94641.00
2023-07-07T12:30:23.359Z,94623.75
2023-07-07T12:32:52.744Z,94638.53
2023-07-07T12:35:37.378Z,94632.91
2023-07-07T12:38:34.746Z,94626.94
2023-07-07T12:41:14.677Z,94628.59
2023-07-07T12:43:47.207Z,94628.06
2023-07-07T12:46:30.563Z,94626.41
2023-07-07T12:49:01.619Z,94621.06
2023-07-07T12:51:28.951Z,94614.22
2023-07-07T12:53:58.686Z,94615.03
2023-07-07T12:56:29.345Z,94607.50
2023-07-07T12:58:59.616Z,94606.69
2023-07-07T13:01:36.177Z,94594.34
2023-07-07T13:04:08.898Z,94601.88
2023-07-07T13:06:38.362Z,94596.31
2023-07-07T13:09:13.953Z,94603.03
2023-07-07T13:11:48.033Z,94602.22
2023-07-07T13:14:28.575Z,94576.16
2023-07-07T13:16:56.021Z,94596.88
2023-07-07T13:19:22.930Z,94592.44
2023-07-07T13:21:49.591Z,94566.94
2023-07-07T13:24:16.936Z,94574.88
2023-07-07T13:26:43.895Z,94585.28
2023-07-07T13:29:12.988Z,94587.25
2023-07-07T13:31:40.707Z,94588.84
2023-07-07T13:34:17.329Z,94579.63
2023-07-07T13:36:50.165Z,94592.03
2023-07-07T13:39:21.452Z,94587.34
2023-07-07T13:41:48.671Z,94583.41
2023-07-07T13:44:19.332Z,94570.25
2023-07-07T13:46:53.815Z,94572.66
2023-07-07T13:49:23.891Z,94577.34
2023-07-07T13:51:55.162Z,94578.50
2023-07-07T13:54:27.165Z,94574.50
2023-07-07T13:57:05.485Z,94564.16
2023-07-07T13:59:32.417Z,94564.19
2023-07-07T14:01:59.445Z,94564.97
2023-07-07T14:04:36.649Z,94576.50
2023-07-07T14:07:03.840Z,94560.56
2023-07-07T14:09:40.974Z,94560.06
2023-07-07T14:12:12.738Z,94560.03
2023-07-07T14:14:41.915Z,94557.63
2023-07-07T14:17:17.378Z,94557.09
2023-07-07T14:19:53.406Z,94546.59
2023-07-07T14:22:20.053Z,94550.13
2023-07-07T14:24:46.576Z,94555.63
2023-07-07T14:27:13.855Z,94548.78
2023-07-07T14:29:41.185Z,94557.13
2023-07-07T14:32:14.874Z,94553.88
2023-07-07T14:34:50.863Z,94551.84
2023-07-07T14:37:38.544Z,94550.19
2023-07-07T14:40:24.296Z,94545.81
2023-07-07T14:42:51.411Z,94546.59
2023-07-07T14:45:26.525Z,94534.13
2023-07-07T14:47:53.424Z,94555.59
2023-07-07T14:50:19.984Z,94547.91
2023-07-07T14:52:48.297Z,94553.75
2023-07-07T14:55:41.239Z,94552.97
2023-07-07T14:58:20.004Z,94546.69
2023-07-07T15:00:46.937Z,94553.91
2023-07-07T15:03:33.960Z,94552.16
2023-07-07T15:06:25.548Z,94544.59
2023-07-07T15:08:52.744Z,94544.97
2023-07-07T15:11:24.014Z,94543.75
2023-07-07T15:13:50.740Z,94542.19
2023-07-07T15:16:20.429Z,94541.00
2023-07-07T15:18:46.963Z,94540.16
2023-07-07T15:21:24.327Z,94540.97
2023-07-07T15:23:50.930Z,94529.50
2023-07-07T15:26:33.121Z,94517.31
2023-07-07T15:29:00.190Z,94532.09
2023-07-07T15:31:27.008Z,94521.41
2023-07-07T15:33:53.748Z,94529.75
2023-07-07T15:36:20.556Z,94528.56
2023-07-07T15:39:06.099Z,94532.56
2023-07-07T15:41:35.674Z,94530.16
2023-07-07T15:44:02.672Z,94525.38
2023-07-07T15:46:40.836Z,94525.75
2023-07-07T15:49:13.857Z,94529.31
2023-07-07T15:51:42.236Z,94532.84
2023-07-07T15:54:09.698Z,94529.22
2023-07-07T15:56:40.802Z,94529.53
2023-07-07T15:59:24.628Z,94524.34
2023-07-07T16:01:52.466Z,94531.69
2023-07-07T16:04:20.111Z,94522.94
2023-07-07T16:06:46.806Z,94515.28
2023-07-07T16:09:16.831Z,94518.38
2023-07-07T16:11:43.966Z,94519.91
2023-07-07T16:14:10.657Z,94514.31
2023-07-07T16:16:37.980Z,94515.84
2023-07-07T16:19:11.945Z,94515.34
2023-07-07T16:21:38.524Z,94501.44
2023-07-07T16:24:05.562Z,94504.53
2023-07-07T16:26:36.233Z,94499.66
2023-07-07T16:29:02.798Z,94507.16
2023-07-07T16:31:30.127Z,94498.78
2023-07-07T16:33:56.644Z,94495.06
2023-07-07T16:36:24.647Z,94498.16
2023-07-07T16:38:51.675Z,94505.16
2023-07-07T16:41:20.969Z,94509.44
2023-07-07T16:43:48.080Z,94504.28
2023-07-07T16:46:15.497Z,94494.25
2023-07-07T16:48:47.905Z,94492.94
2023-07-07T16:51:20.761Z,94508.09
2023-07-07T16:53:47.399Z,94508.38
2023-07-07T16:56:34.513Z,94512.25
2023-07-07T16:59:01.102Z,94517.38
2023-07-07T17:01:30.683Z,94516.13
2023-07-07T17:03:57.333Z,94523.22
2023-07-07T17:06:26.413Z,94505.56
2023-07-07T17:08:52.906Z,94529.09
2023-07-07T17:11:19.434Z,94513.88
2023-07-07T17:13:46.059Z,94522.13
2023-07-07T17:16:20.018Z,94525.22
2023-07-07T17:18:48.476Z,94524.78
2023-07-07T17:21:15.026Z,94516.13
2023-07-07T17:23:41.558Z,94519.16
2023-07-07T17:26:16.224Z,94515.31
2023-07-07T17:28:42.776Z,94550.09
2023-07-07T17:31:24.577Z,94536.44
2023-07-07T17:33:53.518Z,94539.91
2023-07-07T17:36:22.297Z,94545.69
2023-07-07T17:38:49.005Z,94549.97
2023-07-07T17:41:16.169Z,94559.34
2023-07-07T17:43:42.704Z,94566.34
2023-07-07T17:46:31.098Z,94557.78
2023-07-07T17:49:01.492Z,94564.13
2023-07-07T17:51:29.003Z,94568.16
2023-07-07T17:53:56.230Z,94552.53
2023-07-07T17:56:24.528Z,94552.38
2023-07-07T17:58:51.180Z,94560.22
2023-07-07T18:01:17.918Z,94554.44
2023-07-07T18:03:44.826Z,94556.66
2023-07-07T18:06:22.676Z,94553.72
2023-07-07T18:08:51.063Z,94568.97
2023-07-07T18:11:24.876Z,94565.13
2023-07-07T18:13:52.203Z,94564.56
2023-07-07T18:16:36.604Z,94547.78
2023-07-07T18:19:13.044Z,94554.91
2023-07-07T18:21:57.872Z,94554.38
2023-07-07T18:24:26.827Z,94548.56
2023-07-07T18:26:56.104Z,94552.25
2023-07-07T18:29:23.566Z,94565.88
2023-07-07T18:31:50.223Z,94561.81
2023-07-07T18:34:17.122Z,94558.47
2023-07-07T18:36:48.178Z,94571.91
2023-07-07T18:39:18.141Z,94560.31
2023-07-07T18:41:44.701Z,94568.97
2023-07-07T18:44:11.211Z,94571.06
2023-07-07T18:46:37.744Z,94576.03
2023-07-07T18:49:08.695Z,94589.03
2023-07-07T18:51:39.276Z,94598.91
2023-07-07T18:54:05.820Z,94577.09
2023-07-07T18:56:33.642Z,94585.00
2023-07-07T18:59:00.252Z,94596.16
2023-07-07T19:01:29.756Z,94599.25
2023-07-07T19:03:56.458Z,94580.44
2023-07-07T19:06:27.265Z,94565.59
2023-07-07T19:08:53.827Z,94564.44
2023-07-07T19:11:20.366Z,94583.50
2023-07-07T19:13:47.042Z,94572.91
2023-07-07T19:16:17.653Z,94567.16
2023-07-07T19:18:46.590Z,94563.94
2023-07-07T19:21:14.344Z,94572.88
2023-07-07T19:23:40.887Z,94561.59
2023-07-07T19:26:41.724Z,94574.34
2023-07-07T19:29:10.396Z,94575.38
2023-07-07T19:31:36.960Z,94580.16
2023-07-07T19:34:04.985Z,94584.44
2023-07-07T19:36:32.999Z,94581.44
2023-07-07T19:38:59.529Z,94569.94
2023-07-07T19:41:28.560Z,94586.09
2023-07-07T19:43:56.708Z,94585.28
2023-07-07T19:46:31.259Z,94588.22
2023-07-07T19:48:57.928Z,94583.41
2023-07-07T19:51:28.888Z,94582.47
2023-07-07T19:53:56.005Z,94574.75
2023-07-07T19:56:22.707Z,94587.72
2023-07-07T19:58:51.519Z,94576.47
2023-07-07T20:01:19.389Z,94570.66
2023-07-07T20:03:46.879Z,94569.75
2023-07-07T20:06:17.940Z,94585.47
2023-07-07T20:08:44.405Z,94585.00
2023-07-07T20:11:19.061Z,94592.66
2023-07-07T20:13:45.724Z,94587.41
2023-07-07T20:16:32.223Z,94579.75
2023-07-07T20:19:01.546Z,94595.59
2023-07-07T20:21:28.034Z,94604.84
2023-07-07T20:23:54.553Z,94607.91
2023-07-07T20:26:22.029Z,94592.59
2023-07-07T20:28:51.800Z,94592.59
2023-07-07T20:31:19.025Z,94580.34
2023-07-07T20:33:46.048Z,94594.91
2023-07-07T20:36:13.325Z,94581.06
2023-07-07T20:38:40.457Z,94587.03
2023-07-07T20:41:12.040Z,94591.13
2023-07-07T20:43:39.120Z,94599.03
2023-07-07T20:46:27.726Z,94602.91
2023-07-07T20:48:54.263Z,94603.22
2023-07-07T20:51:23.118Z,94604.19
2023-07-07T20:53:49.566Z,94602.44
2023-07-07T20:56:17.696Z,94602.16
2023-07-07T20:58:44.405Z,94613.94
2023-07-07T21:01:11.795Z,94607.94
2023-07-07T21:03:38.425Z,94600.69
2023-07-07T21:06:05.248Z,94599.75
2023-07-07T21:08:31.725Z,94586.84
2023-07-07T21:10:58.379Z,94595.53
2023-07-07T21:13:25.474Z,94597.31
2023-07-07T21:15:52.574Z,94597.81
2023-07-07T21:18:19.168Z,94607.19
2023-07-07T21:20:46.530Z,94593.78
2023-07-07T21:23:14.525Z,94612.19
2023-07-07T21:25:41.362Z,94601.72
2023-07-07T21:28:14.653Z,94593.00
2023-07-07T21:30:42.498Z,94617.50
2023-07-07T21:33:09.631Z,94599.28
2023-07-07T21:35:36.060Z,94610.25
2023-07-07T21:38:02.543Z,94622.53
2023-07-07T21:40:29.037Z,94613.16
2023-07-07T21:42:55.718Z,94609.94
2023-07-07T21:45:23.352Z,94624.44
2023-07-07T21:47:54.629Z,94609.44
2023-07-07T21:50:22.718Z,94621.88
2023-07-07T21:52:49.342Z,94602.03
2023-07-07T21:55:16.064Z,94608.31
2023-07-07T21:57:49.463Z,94623.47
2023-07-07T22:00:28.828Z,94613.94
2023-07-07T22:02:59.445Z,94616.53
2023-07-07T22:05:26.776Z,94591.97
2023-07-07T22:07:53.470Z,94617.44
2023-07-07T22:10:31.611Z,94609.88
2023-07-07T22:12:58.064Z,94604.53
2023-07-07T22:15:24.579Z,94592.47
2023-07-07T22:17:51.067Z,94598.06
2023-07-07T22:20:49.755Z,94598.91
2023-07-07T22:23:16.209Z,94600.69
2023-07-07T22:25:43.285Z,94596.28
2023-07-07T22:28:24.448Z,94590.63
2023-07-07T22:30:53.720Z,94602.25
2023-07-07T22:33:20.749Z,94609.97
2023-07-07T22:35:47.445Z,94609.81
2023-07-07T22:38:18.554Z,94610.75
2023-07-07T22:40:46.065Z,94607.88
2023-07-07T22:43:13.569Z,94600.44
2023-07-07T22:45:40.083Z,94583.47
2023-07-07T22:48:11.233Z,94617.00
2023-07-07T22:50:37.687Z,94611.19
2023-07-07T22:53:06.587Z,94620.53
2023-07-07T22:55:33.049Z,94611.84
2023-07-07T22:57:59.531Z,94612.44
2023-07-07T23:00:30.202Z,94612.09
2023-07-07T23:02:56.918Z,94629.00
2023-07-07T23:05:24.479Z,94594.59
2023-07-07T23:07:51.107Z,94621.38
2023-07-07T23:10:18.828Z,94633.13
2023-07-07T23:12:45.477Z,94633.75
2023-07-07T23:15:13.019Z,94628.44
2023-07-07T23:17:39.584Z,94635.84
2023-07-07T23:20:15.950Z,94642.25
2023-07-07T23:22:42.475Z,94637.41
2023-07-07T23:25:11.554Z,94627.09
2023-07-07T23:27:47.079Z,94632.41
2023-07-07T23:30:38.473Z,94616.13
2023-07-07T23:33:06.088Z,94607.69
2023-07-07T23:35:33.530Z,94612.00
2023-07-07T23:38:00.069Z,94613.91
2023-07-07T23:40:31.126Z,94608.13
2023-07-07T23:42:58.268Z,94601.50
2023-07-07T23:45:24.884Z,94597.41
2023-07-07T23:47:56.826Z,94593.25
2023-07-07T23:50:35.482Z,94604.97
2023-07-07T23:53:01.982Z,94604.38
2023-07-07T23:55:31.866Z,94607.59
2023-07-07T23:57:58.531Z,94600.00
